createdAt,value
2022-12-31T00:01:45.747Z,98576.19
2022-12-31T00:04:12.100Z,98578.16
2022-12-31T00:06:38.495Z,98588.06
2022-12-31T00:09:06.887Z,98594.66
2022-12-31T00:11:34.809Z,98591.56
2022-12-31T00:14:01.368Z,98586.69
2022-12-31T00:16:33.982Z,98585.59
2022-12-31T00:19:01.002Z,98588.81
2022-12-31T00:21:29.777Z,98590.22
2022-12-31T00:23:57.041Z,98585.47
2022-12-31T00:26:26.270Z,98577.97
2022-12-31T00:28:54.480Z,98580.34
2022-12-31T00:31:39.791Z,98583.28
2022-12-31T00:34:07.037Z,98564.88
2022-12-31T00:36:37.543Z,98560.72
2022-12-31T00:39:06.019Z,98571.28
2022-12-31T00:41:32.954Z,98568.78
2022-12-31T00:43:59.773Z,98571.44
2022-12-31T00:46:26.968Z,98564.59
2022-12-31T00:48:53.905Z,98567.25
2022-12-31T00:51:23.237Z,98564.75
2022-12-31T00:53:50.045Z,98563.63
2022-12-31T00:56:19.200Z,98569.91
2022-12-31T00:58:46.229Z,98552.22
2022-12-31T01:01:21.074Z,98557.78
2022-12-31T01:03:50.156Z,98556.66
2022-12-31T01:06:16.669Z,98557.66
2022-12-31T01:08:43.198Z,98557.38
2022-12-31T01:11:22.469Z,98568.78
2022-12-31T01:13:50.879Z,98562.53
2022-12-31T01:16:19.078Z,98570.16
2022-12-31T01:18:45.607Z,98568.25
2022-12-31T01:21:13.641Z,98569.06
2022-12-31T01:23:40.519Z,98567.13
2022-12-31T01:26:09.276Z,98560.84
2022-12-31T01:28:36.151Z,98573.81
2022-12-31T01:31:07.248Z,98569.50
2022-12-31T01:33:34.251Z,98563.06
2022-12-31T01:36:08.539Z,98571.84
2022-12-31T01:38:35.660Z,98555.66
2022-12-31T01:41:03.349Z,98559.31
2022-12-31T01:43:51.527Z,98562.09
2022-12-31T01:46:25.537Z,98571.56
2022-12-31T01:48:56.584Z,98564.59
2022-12-31T01:51:25.522Z,98582.00
2022-12-31T01:53:52.075Z,98573.22
2022-12-31T01:56:22.094Z,98579.34
2022-12-31T01:58:51.596Z,98571.56
2022-12-31T02:01:24.618Z,98577.00
2022-12-31T02:03:51.415Z,98572.41
2022-12-31T02:06:25.629Z,98565.97
2022-12-31T02:08:52.009Z,98549.97
2022-12-31T02:11:20.876Z,98551.22
2022-12-31T02:13:47.288Z,98529.19
2022-12-31T04:50:07.175Z,98599.09
2022-12-31T04:52:40.310Z,98598.97
2022-12-31T04:55:09.008Z,98595.22
2022-12-31T04:57:35.537Z,98602.28
2022-12-31T05:00:02.091Z,98597.72
2022-12-31T05:02:29.883Z,98601.19
2022-12-31T05:04:56.405Z,98598.41
2022-12-31T05:07:22.807Z,98595.63
2022-12-31T05:09:49.178Z,98592.84
2022-12-31T05:12:15.559Z,98594.53
2022-12-31T05:14:41.972Z,98584.78
2022-12-31T05:17:08.336Z,98589.09
2022-12-31T05:19:34.715Z,98593.53
2022-12-31T05:22:19.779Z,98587.31
2022-12-31T05:24:46.134Z,98589.94
2022-12-31T05:27:12.513Z,98579.38
2022-12-31T05:29:38.878Z,98589.94
2022-12-31T05:32:05.325Z,98600.41
2022-12-31T05:34:31.721Z,98596.06
2022-12-31T05:36:58.077Z,98603.97
2022-12-31T05:39:24.453Z,98603.16
2022-12-31T05:41:50.809Z,98606.63
2022-12-31T05:44:17.161Z,98606.63
2022-12-31T05:46:43.577Z,98596.06
2022-12-31T05:49:10.010Z,98600.41
2022-12-31T05:51:36.404Z,98602.31
2022-12-31T05:54:02.791Z,98600.41
2022-12-31T05:56:29.261Z,98602.19
2022-12-31T05:58:55.915Z,98587.16
2022-12-31T06:01:22.733Z,98596.91
2022-12-31T06:03:49.275Z,98584.53
2022-12-31T06:06:15.693Z,98593.28
2022-12-31T06:08:42.196Z,98607.22
2022-12-31T06:11:08.740Z,98610.69
2022-12-31T06:13:35.255Z,98606.38
2022-12-31T06:16:06.452Z,98616.94
2022-12-31T06:18:32.857Z,98613.31
2022-12-31T06:20:59.233Z,98612.50
2022-12-31T06:23:25.647Z,98618.47
2022-12-31T06:25:52.094Z,98619.47
2022-12-31T06:28:20.561Z,98615.16
2022-12-31T06:30:47.387Z,98604.56
2022-12-31T06:33:14.010Z,98615.00
2022-12-31T06:35:40.419Z,98632.69
2022-12-31T06:38:06.819Z,98620.31
2022-12-31T06:40:33.183Z,98641.47
2022-12-31T06:43:00.341Z,98639.63
2022-12-31T06:45:27.030Z,98632.56
2022-12-31T06:47:53.427Z,98629.06
2022-12-31T06:50:19.817Z,98655.38
2022-12-31T06:52:46.260Z,98657.88
2022-12-31T06:55:13.723Z,98649.09
2022-12-31T06:57:40.400Z,98638.41
2022-12-31T07:00:07.374Z,98636.59
2022-12-31T07:02:55.488Z,98638.53
2022-12-31T07:05:55.755Z,98626.16
2022-12-31T07:08:46.806Z,98633.22
2022-12-31T07:11:23.561Z,98621.69
2022-12-31T07:13:59.265Z,98627.56
2022-12-31T07:16:50.299Z,98617.50
2022-12-31T07:19:36.592Z,98632.00
2022-12-31T07:22:03.789Z,98643.69
2022-12-31T07:24:30.401Z,98643.69
2022-12-31T07:27:12.586Z,98643.13
2022-12-31T07:29:57.662Z,98638.66
2022-12-31T07:32:45.264Z,98626.53
2022-12-31T07:35:44.100Z,98633.38
2022-12-31T07:38:24.834Z,98633.38
2022-12-31T07:41:28.178Z,98646.47
2022-12-31T07:44:04.314Z,98642.72
2022-12-31T07:46:49.539Z,98646.75
2022-12-31T07:49:16.190Z,98650.94
2022-12-31T07:51:43.366Z,98638.41
2022-12-31T07:54:13.856Z,98642.47
2022-12-31T07:56:41.597Z,98650.69
2022-12-31T07:59:17.416Z,98647.63
2022-12-31T08:01:51.949Z,98658.78
2022-12-31T08:04:32.523Z,98657.53
2022-12-31T08:07:31.841Z,98664.09
2022-12-31T08:10:39.245Z,98645.13
2022-12-31T08:13:10.705Z,98648.78
2022-12-31T08:15:38.512Z,98653.50
2022-12-31T08:18:05.731Z,98654.22
2022-12-31T08:20:37.268Z,98653.91
2022-12-31T08:23:06.581Z,98655.03
2022-12-31T08:26:30.477Z,98657.69
2022-12-31T08:29:07.921Z,98654.31
2022-12-31T08:32:04.433Z,98646.09
2022-12-31T08:35:03.086Z,98653.59
2022-12-31T08:37:41.615Z,98654.31
2022-12-31T08:40:20.098Z,98657.63
2022-12-31T08:43:01.502Z,98650.13
2022-12-31T08:45:47.571Z,98658.78
2022-12-31T08:48:26.609Z,98649.56
2022-12-31T08:50:54.182Z,98666.00
2022-12-31T08:53:20.888Z,98657.13
2022-12-31T08:55:52.681Z,98654.28
2022-12-31T08:59:04.539Z,98661.28
2022-12-31T09:01:44.077Z,98670.19
2022-12-31T09:04:33.769Z,98663.75
2022-12-31T09:07:03.090Z,98647.56
2022-12-31T09:09:44.163Z,98641.25
2022-12-31T09:12:22.936Z,98648.78
2022-12-31T09:15:21.022Z,98668.03
2022-12-31T09:17:49.661Z,98661.84
2022-12-31T09:20:42.991Z,98660.06
2022-12-31T09:23:12.200Z,98655.00
2022-12-31T09:26:09.436Z,98661.28
2022-12-31T09:28:43.081Z,98672.16
2022-12-31T09:31:14.652Z,98666.84
2022-12-31T09:33:48.500Z,98670.88
2022-12-31T09:36:23.988Z,98677.00
2022-12-31T09:39:00.699Z,98696.78
2022-12-31T09:41:37.734Z,98750.38
2022-12-31T09:44:43.268Z,98748.84
2022-12-31T09:47:18.500Z,98754.03
2022-12-31T09:50:06.240Z,98752.34
2022-12-31T09:53:13.433Z,98767.41
2022-12-31T09:55:55.851Z,98775.38
2022-12-31T09:58:29.823Z,98776.75
2022-12-31T10:01:04.110Z,98782.38
2022-12-31T10:03:42.854Z,98791.72
2022-12-31T10:06:32.121Z,98804.69
2022-12-31T10:09:10.393Z,98816.16
2022-12-31T10:11:55.700Z,98831.53
2022-12-31T10:14:46.980Z,98830.81
2022-12-31T10:17:32.630Z,98844.66
2022-12-31T10:20:28.714Z,98859.31
2022-12-31T10:23:28.976Z,98843.13
2022-12-31T10:26:10.575Z,98835.44
2022-12-31T10:29:09.777Z,98837.69
2022-12-31T10:31:57.950Z,98837.00
2022-12-31T10:34:47.254Z,98825.97
2022-12-31T10:37:29.603Z,98841.88
2022-12-31T10:39:55.920Z,98829.06
2022-12-31T10:42:38.400Z,98833.63
2022-12-31T10:45:42.492Z,98836.03
2022-12-31T10:48:52.635Z,98835.75
2022-12-31T10:51:25.194Z,98844.53
2022-12-31T10:54:00.707Z,98839.22
2022-12-31T10:56:57.886Z,98835.59
2022-12-31T11:00:01.700Z,98833.50
2022-12-31T11:05:26.028Z,98842.41
2022-12-31T11:08:23.952Z,98854.53
2022-12-31T11:11:17.142Z,98841.16
2022-12-31T11:13:49.728Z,98837.09
2022-12-31T11:16:51.798Z,98833.06
2022-12-31T11:19:38.680Z,98825.78
2022-12-31T11:22:36.696Z,98824.97
2022-12-31T11:25:12.711Z,98846.84
2022-12-31T11:27:59.574Z,98828.28
2022-12-31T11:30:53.961Z,98825.34
2022-12-31T11:33:55.196Z,98825.91
2022-12-31T11:36:42.204Z,98818.34
2022-12-31T11:39:39.684Z,98834.81
2022-12-31T11:42:34.523Z,98821.25
2022-12-31T11:45:01.010Z,98817.03
2022-12-31T11:48:12.184Z,98807.28
2022-12-31T11:50:49.323Z,98805.03
2022-12-31T11:53:43.857Z,98806.69
2022-12-31T11:56:24.615Z,98812.56
2022-12-31T11:58:56.027Z,98815.91
2022-12-31T12:01:30.406Z,98813.81
2022-12-31T12:04:18.579Z,98806.69
2022-12-31T12:06:46.120Z,98807.22
2022-12-31T12:09:26.592Z,98820.63
2022-12-31T12:12:02.807Z,98809.88
2022-12-31T12:14:43.914Z,98800.25
2022-12-31T12:17:18.041Z,98801.78
2022-12-31T12:19:47.696Z,98790.88
2022-12-31T12:22:21.601Z,98791.84
2022-12-31T12:25:03.042Z,98788.88
2022-12-31T12:27:31.529Z,98783.16
2022-12-31T12:29:58.089Z,98801.44
2022-12-31T12:32:26.592Z,98802.13
2022-12-31T12:34:53.983Z,98793.72
2022-12-31T12:37:35.329Z,98806.28
2022-12-31T12:40:29.888Z,98803.22
2022-12-31T12:42:59.849Z,98798.66
2022-12-31T12:45:30.073Z,98790.25
2022-12-31T12:48:02.338Z,98793.59
2022-12-31T12:50:42.126Z,98803.94
2022-12-31T12:53:26.446Z,98802.34
2022-12-31T12:56:11.013Z,98791.56
2022-12-31T12:58:40.517Z,98810.72
2022-12-31T13:01:25.145Z,98802.44
2022-12-31T13:04:34.115Z,98808.72
2022-12-31T13:07:19.275Z,98799.47
2022-12-31T13:09:59.192Z,98807.13
2022-12-31T13:12:56.711Z,98810.19
2022-12-31T13:15:30.417Z,98805.38
2022-12-31T13:18:29.344Z,98807.75
2022-12-31T13:21:18.269Z,98837.69
2022-12-31T13:23:57.582Z,98831.09
2022-12-31T13:26:44.862Z,98839.34
2022-12-31T13:29:20.895Z,98839.50
2022-12-31T13:31:50.140Z,98821.88
2022-12-31T13:34:22.227Z,98831.13
2022-12-31T13:36:50.891Z,98815.78
2022-12-31T13:39:41.842Z,98821.47
2022-12-31T13:42:44.178Z,98833.81
2022-12-31T13:45:17.042Z,98825.03
2022-12-31T13:47:58.526Z,98815.31
2022-12-31T13:50:34.514Z,98828.88
2022-12-31T13:53:16.144Z,98830.16
2022-12-31T13:55:56.625Z,98825.97
2022-12-31T13:58:45.651Z,98817.31
2022-12-31T14:01:22.429Z,98838.53
2022-12-31T14:04:26.569Z,98817.75
2022-12-31T14:07:14.727Z,98853.28
2022-12-31T14:09:42.475Z,98825.72
2022-12-31T14:12:35.208Z,98831.19
2022-12-31T14:15:26.316Z,98833.97
2022-12-31T14:18:01.642Z,98846.97
2022-12-31T14:20:48.085Z,98848.91
2022-12-31T14:23:44.717Z,98856.59
2022-12-31T14:26:27.586Z,98859.25
2022-12-31T14:29:14.000Z,98861.91
2022-12-31T14:31:49.449Z,98864.56
2022-12-31T14:34:18.855Z,98860.78
2022-12-31T14:37:03.991Z,98868.22
2022-12-31T14:39:36.575Z,98864.28
2022-12-31T14:42:09.958Z,98862.75
2022-12-31T14:44:50.857Z,98875.19
2022-12-31T14:47:20.157Z,98887.47
2022-12-31T14:50:11.405Z,98891.56
2022-12-31T14:52:47.350Z,98893.25
2022-12-31T14:55:15.088Z,98884.16
2022-12-31T14:58:25.375Z,98896.56
2022-12-31T15:00:35.137Z,98901.06
2022-12-31T15:03:30.683Z,98888.06
2022-12-31T15:06:34.897Z,98892.25
2022-12-31T15:09:19.107Z,98884.00
2022-12-31T15:11:54.836Z,98888.19
2022-12-31T15:14:29.810Z,98882.88
2022-12-31T15:17:29.226Z,98875.03
2022-12-31T15:20:17.571Z,98896.16
2022-12-31T15:22:46.318Z,98881.47
2022-12-31T15:25:40.488Z,98888.72
2022-12-31T15:28:32.269Z,98911.50
2022-12-31T15:31:05.095Z,98911.75
2022-12-31T15:33:53.351Z,98911.59
2022-12-31T15:36:22.846Z,98919.13
2022-12-31T15:38:50.342Z,98924.44
2022-12-31T15:41:19.684Z,98916.63
2022-12-31T15:43:52.032Z,98916.03
2022-12-31T15:46:25.494Z,98922.19
2022-12-31T15:49:03.902Z,98923.56
2022-12-31T15:51:37.643Z,98917.97
2022-12-31T15:54:05.515Z,98920.44
2022-12-31T15:56:38.151Z,98925.63
2022-12-31T15:59:11.780Z,98918.66
2022-12-31T16:01:41.770Z,98935.44
2022-12-31T16:04:24.228Z,98933.06
2022-12-31T16:06:51.594Z,98930.94
2022-12-31T16:09:23.213Z,98937.25
2022-12-31T16:11:50.805Z,98936.09
2022-12-31T16:14:35.844Z,98944.34
2022-12-31T16:17:03.023Z,98950.09
2022-12-31T16:19:35.375Z,98941.56
2022-12-31T16:22:14.435Z,98937.94
2022-12-31T16:25:02.894Z,98921.41
2022-12-31T16:27:29.995Z,98946.97
2022-12-31T16:30:02.097Z,98929.22
2022-12-31T16:32:35.583Z,98946.16
2022-12-31T16:35:02.152Z,98944.72
2022-12-31T16:37:28.695Z,98947.22
2022-12-31T16:40:16.604Z,98930.75
2022-12-31T16:42:46.655Z,98940.78
2022-12-31T16:45:30.967Z,98927.94
2022-12-31T16:48:14.711Z,98938.44
2022-12-31T16:50:49.386Z,98926.81
2022-12-31T16:53:20.056Z,98930.16
2022-12-31T16:56:01.393Z,98938.56
2022-12-31T16:58:33.216Z,98940.09
2022-12-31T17:01:13.664Z,98933.13
2022-12-31T17:03:45.391Z,98921.78
2022-12-31T17:06:16.166Z,98924.44
2022-12-31T17:08:55.732Z,98913.97
2022-12-31T17:11:31.268Z,98908.97
2022-12-31T17:14:07.306Z,98908.13
2022-12-31T17:16:35.746Z,98901.00
2022-12-31T17:19:03.957Z,98901.94
2022-12-31T17:21:32.259Z,98886.84
2022-12-31T17:24:05.418Z,98893.31
2022-12-31T17:26:35.069Z,98882.81
2022-12-31T17:29:02.953Z,98881.97
2022-12-31T17:31:33.727Z,98880.44
2022-12-31T17:34:06.124Z,98881.59
2022-12-31T17:36:32.566Z,98877.78
2022-12-31T17:39:17.765Z,98881.72
2022-12-31T17:41:45.895Z,98885.78
2022-12-31T17:44:19.808Z,98868.44
2022-12-31T17:46:46.738Z,98884.81
2022-12-31T17:49:16.506Z,98871.53
2022-12-31T17:51:47.479Z,98876.84
2022-12-31T17:54:15.575Z,98863.69
2022-12-31T17:56:42.503Z,98860.19
2022-12-31T17:59:33.199Z,98866.50
2022-12-31T18:02:01.868Z,98875.13
2022-12-31T18:04:28.373Z,98867.50
2022-12-31T18:06:54.672Z,98863.69
2022-12-31T18:09:21.053Z,98872.34
2022-12-31T18:11:47.475Z,98857.38
2022-12-31T18:14:15.236Z,98861.56
2022-12-31T18:16:42.230Z,98864.91
2022-12-31T18:19:37.827Z,98865.22
2022-12-31T18:22:02.227Z,98872.06
2022-12-31T18:24:28.528Z,98865.75
2022-12-31T18:26:55.165Z,98858.47
2022-12-31T18:29:22.256Z,98853.84
2022-12-31T18:31:49.687Z,98868.78
2022-12-31T18:34:17.784Z,98850.19
2022-12-31T18:36:44.734Z,98856.34
2022-12-31T18:39:11.334Z,98870.63
2022-12-31T18:41:50.837Z,98861.13
2022-12-31T18:44:17.529Z,98858.00
2022-12-31T18:46:43.890Z,98868.50
2022-12-31T18:49:10.244Z,98884.28
2022-12-31T18:51:36.735Z,98882.63
2022-12-31T18:54:04.641Z,98888.63
2022-12-31T18:56:31.368Z,98877.97
2022-12-31T18:58:59.521Z,98874.19
2022-12-31T19:01:38.044Z,98877.47
2022-12-31T19:04:14.979Z,98880.22
2022-12-31T19:06:42.455Z,98875.78
2022-12-31T19:09:30.980Z,98878.31
2022-12-31T19:11:56.096Z,98883.78
2022-12-31T19:14:24.503Z,98883.19
2022-12-31T19:16:52.266Z,98892.81
2022-12-31T19:19:18.896Z,98896.16
2022-12-31T19:21:45.654Z,98882.59
2022-12-31T19:24:24.432Z,98904.97
2022-12-31T19:26:50.793Z,98875.59
2022-12-31T19:29:19.576Z,98884.97
2022-12-31T19:31:46.173Z,98876.00
2022-12-31T19:34:12.828Z,98884.63
2022-12-31T19:36:44.059Z,98885.50
2022-12-31T19:39:16.083Z,98894.00
2022-12-31T19:41:43.699Z,98900.69
2022-12-31T19:44:18.196Z,98894.69
2022-12-31T19:46:45.300Z,98899.72
2022-12-31T19:49:14.682Z,98901.00
2022-12-31T19:51:41.637Z,98893.69
2022-12-31T19:54:08.528Z,98887.00
2022-12-31T19:56:35.030Z,98910.25
2022-12-31T19:59:06.239Z,98900.59
2022-12-31T20:01:32.667Z,98910.13
2022-12-31T20:03:59.251Z,98895.28
2022-12-31T20:06:25.580Z,98910.72
2022-12-31T20:08:51.891Z,98908.03
2022-12-31T20:11:21.011Z,98910.97
2022-12-31T20:13:48.811Z,98919.13
2022-12-31T20:16:17.403Z,98928.91
2022-12-31T20:18:45.805Z,98922.75
2022-12-31T20:21:18.862Z,98953.81
2022-12-31T20:23:45.109Z,98928.38
2022-12-31T20:26:11.643Z,98938.44
2022-12-31T20:28:38.556Z,98932.41
2022-12-31T20:31:06.992Z,98946.81
2022-12-31T20:33:33.896Z,98934.66
2022-12-31T20:36:05.109Z,98941.13
2022-12-31T20:38:31.519Z,98947.94
2022-12-31T20:41:16.746Z,98941.44
2022-12-31T20:43:43.953Z,98963.38
2022-12-31T20:46:17.914Z,98956.38
2022-12-31T20:48:45.441Z,98943.78
2022-12-31T20:51:13.406Z,98965.88
2022-12-31T20:53:40.320Z,98951.31
2022-12-31T20:56:08.779Z,98964.59
2022-12-31T20:58:35.957Z,98959.16
2022-12-31T21:01:06.007Z,98954.13
2022-12-31T21:06:19.018Z,98952.31
2022-12-31T21:08:45.697Z,98958.75
2022-12-31T21:11:31.675Z,98959.97
2022-12-31T21:13:59.287Z,98959.97
2022-12-31T21:16:27.023Z,98959.16
2022-12-31T21:18:54.117Z,98960.97
2022-12-31T21:21:20.608Z,98950.59
2022-12-31T21:23:46.954Z,98966.28
2022-12-31T21:26:13.441Z,98968.94
2022-12-31T21:28:39.814Z,98975.09
2022-12-31T21:31:08.106Z,98992.72
2022-12-31T21:33:34.998Z,98988.25
2022-12-31T21:36:04.667Z,98976.63
2022-12-31T21:38:31.412Z,98966.81
2022-12-31T21:41:05.642Z,98974.25
2022-12-31T21:43:32.003Z,98973.09
2022-12-31T21:46:06.858Z,98968.25
2022-12-31T21:48:33.777Z,98989.78
2022-12-31T21:51:13.033Z,98973.41
2022-12-31T21:53:40.098Z,98972.28
2022-12-31T21:56:11.229Z,98982.94
2022-12-31T21:58:43.486Z,98993.00
2022-12-31T22:01:41.483Z,98984.03
2022-12-31T22:04:28.161Z,98977.59
2022-12-31T22:06:54.389Z,98990.47
2022-12-31T22:09:20.728Z,98981.81
2022-12-31T22:11:47.600Z,98974.66
2022-12-31T22:14:13.950Z,98993.38
2022-12-31T22:16:40.298Z,98985.72
2022-12-31T22:19:06.622Z,98990.19
2022-12-31T22:21:32.995Z,99000.16
2022-12-31T22:23:59.424Z,98992.31
2022-12-31T22:26:28.701Z,98997.09
2022-12-31T22:28:59.057Z,99016.25
2022-12-31T22:31:29.688Z,99013.88
2022-12-31T22:33:56.303Z,99017.06
2022-12-31T22:36:23.534Z,99024.09
2022-12-31T22:38:53.850Z,99026.03
2022-12-31T22:41:22.103Z,99027.88
2022-12-31T22:43:51.052Z,99015.69
2022-12-31T22:46:20.923Z,99039.47
2022-12-31T22:48:47.901Z,99025.75
2022-12-31T22:51:15.695Z,99019.44
2022-12-31T22:53:43.420Z,99032.44
2022-12-31T22:56:13.436Z,99022.81
2022-12-31T22:58:40.237Z,99026.88
2022-12-31T23:01:08.976Z,99027.56
2022-12-31T23:06:59.800Z,99046.69
2022-12-31T23:09:44.947Z,99049.03
2022-12-31T23:12:11.544Z,99052.69
2022-12-31T23:14:56.496Z,99056.00
2022-12-31T23:17:44.696Z,99057.00
2022-12-31T23:20:33.157Z,99039.63
2022-12-31T23:23:08.906Z,99046.31
2022-12-31T23:26:00.198Z,99051.94
2022-12-31T23:28:26.673Z,99053.97
2022-12-31T23:30:53.768Z,99052.16
2022-12-31T23:33:23.473Z,99051.88
2022-12-31T23:35:50.326Z,99056.88
2022-12-31T23:38:18.259Z,99047.75
2022-12-31T23:40:45.635Z,99044.66
2022-12-31T23:43:21.601Z,99046.94
2022-12-31T23:45:50.388Z,99039.47
2022-12-31T23:48:16.946Z,99059.78
2022-12-31T23:50:47.638Z,99048.97
2022-12-31T23:53:17.448Z,99057.53
2022-12-31T23:55:43.928Z,99044.38
2022-12-31T23:58:10.470Z,99047.69
